Meteosat more information blitzortung!


Radar lluvias  rain snow radar


Website of another weatherstation

Website of another weatherstation



No requiere especial atención con respecto al clima.    No hay Alarmas

Pagina Historial Weather Underground texto

Diario Resumen Octubre 22, 2018 Unidades:  Métrico    impérial   Tanto
« Anterior Dia
Siguiente Dia »
Diario Semana Mensual Anual Personalizada
  Actual: Alto: Baja: Media:
Temperatura: -5.6 °C -17.8 °C -12.2 °C -10 °C
Punto de rocío: -10.5 °C -17.8 °C -13 °C -11.7 °C
Humedad: 57 % Humidity % 54 % 83 %
Velocidad del Viento: 15 km/h 0 km/h 0 km/h 6.4 km/h
Ráfagas de viento: 7.2 km/h 0 km/h - -
Viento:NW - - SW
Pression baro: 34364.5 hPa 0 hPa 34296.8 hPa -
Précipitaciones: 0 mm      
Historical Graphs
 
 
Datos de tabla para Octubre 22, 2018
Tiempo Temperatura Punto de rocío Pression baro Viento Velocidad del Viento Ráfagas de viento Humedad Las precipitaciones Rate ( Hora )
-17.8 °C -17.8 °C 0 hPa Calm     Humidity % 0 mm
00:02 -10 °C -11.5 °C 34296.8 hPa Calm     84 % 0 mm
00:07 -10 °C -11.5 °C 34296.8 hPa Calm     84 % 0 mm
00:12 -10 °C -11.4 °C 34296.8 hPa Calm     85 % 0 mm
00:17 -10 °C -11.4 °C 34296.8 hPa Calm     85 % 0 mm
00:22 -10 °C -11.4 °C 34296.8 hPa Calm     85 % 0 mm
00:27 -10 °C -11.4 °C 34296.8 hPa Calm     85 % 0 mm
00:33 -10 °C -11.3 °C 34296.8 hPa Calm     86 % 0 mm
00:38 -10 °C -11.3 °C 34296.8 hPa Calm     86 % 0 mm
00:43 -10 °C -11.2 °C 34296.8 hPa Calm     87 % 0 mm
00:47 -10 °C -11.3 °C 34296.8 hPa Calm     86 % 0 mm
00:53 -10 °C -11.2 °C 34296.8 hPa Calm     87 % 0 mm
00:57 -10 °C -11.2 °C 34296.8 hPa Calm     87 % 0 mm
01:03 -10 °C -11.2 °C 34296.8 hPa Calm     87 % 0 mm
01:08 -10 °C -11 °C 34296.8 hPa Calm     89 % 0 mm
01:12 -10 °C -10.9 °C 34296.8 hPa SE 6 km/h 2.3 km/h 90 % 0 mm
01:18 -10 °C -10.9 °C 34296.8 hPa NE 3.1 km/h 0.8 km/h 90 % 0 mm
01:23 -10 °C -11 °C 34296.8 hPa NNW 3.1 km/h 1.6 km/h 89 % 0 mm
01:28 -10 °C -10.9 °C 34296.8 hPa ENE 3.1 km/h 1 km/h 90 % 0 mm
01:32 -10 °C -10.9 °C 34296.8 hPa Calm     90 % 0 mm
01:37 -10 °C -10.9 °C 34296.8 hPa NNW 3.1 km/h   90 % 0 mm
01:43 -10.6 °C -11.4 °C 34296.8 hPa Calm     90 % 0 mm
01:47 -10.6 °C -11.3 °C 34296.8 hPa ESE 3.1 km/h   91 % 0 mm
01:53 -10.6 °C -11.3 °C 34296.8 hPa SE 3.1 km/h 0.3 km/h 92 % 0 mm
01:58 -10.6 °C -11.3 °C 34296.8 hPa NE 3.1 km/h 0.5 km/h 92 % 0 mm
02:02 -10.6 °C -11.3 °C 34296.8 hPa Calm     92 % 0 mm
02:07 -10.6 °C -11.3 °C 34296.8 hPa SE 3.1 km/h   92 % 0 mm
02:13 -10.6 °C -11.3 °C 34296.8 hPa ENE 3.1 km/h   92 % 0 mm
02:18 -10.6 °C -11.3 °C 34296.8 hPa NE 3.1 km/h 1.3 km/h 92 % 0 mm
02:23 -10.6 °C -11.2 °C 34296.8 hPa ENE 3.1 km/h   93 % 0 mm
02:27 -10.6 °C -11.2 °C 34296.8 hPa ENE 6 km/h 1.8 km/h 93 % 0 mm
02:33 -10.6 °C -11.2 °C 34296.8 hPa SW 3.1 km/h 0.3 km/h 93 % 0 mm
02:38 -10.6 °C -11.2 °C 34296.8 hPa NE 3.1 km/h   93 % 0 mm
02:42 -10.6 °C -11.3 °C 34296.8 hPa SE 6 km/h 1.6 km/h 92 % 0 mm
02:47 -10.6 °C -11.3 °C 34296.8 hPa NE 1.6 km/h 0.8 km/h 92 % 0 mm
02:53 -10.6 °C -11.3 °C 34296.8 hPa NNW 6 km/h 1.6 km/h 92 % 0 mm
02:58 -11.1 °C -11.8 °C 34296.8 hPa NE 3.1 km/h 1 km/h 92 % 0 mm
03:03 -11.1 °C -11.8 °C 34296.8 hPa NNE 3.1 km/h 0.3 km/h 92 % 0 mm
03:07 -11.1 °C -11.7 °C 34296.8 hPa Calm   0.3 km/h 93 % 0 mm
03:12 -11.1 °C -11.7 °C 34296.8 hPa ENE 3.1 km/h 0.5 km/h 93 % 0 mm
03:18 -11.1 °C -11.7 °C 34296.8 hPa North 3.1 km/h 1.8 km/h 93 % 0 mm
03:23 -11.1 °C -11.8 °C 34296.8 hPa Calm     92 % 0 mm
03:27 -11.1 °C -11.8 °C 34296.8 hPa Calm     92 % 0 mm
03:32 -11.1 °C -12 °C 34296.8 hPa Calm     90 % 0 mm
03:37 -11.1 °C -11.9 °C 34296.8 hPa Calm     91 % 0 mm
03:42 -11.1 °C -12.1 °C 34296.8 hPa Calm     89 % 0 mm
03:48 -11.1 °C -12.2 °C 34296.8 hPa Calm     88 % 0 mm
03:52 -11.1 °C -12.2 °C 34296.8 hPa Calm     88 % 0 mm
03:58 -11.1 °C -12.3 °C 34296.8 hPa Calm     87 % 0 mm
04:02 -11.1 °C -12.2 °C 34296.8 hPa Calm     88 % 0 mm
04:07 -11.1 °C -12.2 °C 34296.8 hPa Calm     88 % 0 mm
04:12 -11.1 °C -12.3 °C 34296.8 hPa Calm     87 % 0 mm
04:17 -11.1 °C -12.3 °C 34296.8 hPa Calm     87 % 0 mm
04:22 -11.1 °C -12.2 °C 34296.8 hPa NW 3.1 km/h   88 % 0 mm
04:27 -11.1 °C -12 °C 34296.8 hPa NE 5 km/h 1.6 km/h 90 % 0 mm
04:32 -11.1 °C -12 °C 34296.8 hPa Calm     90 % 0 mm
04:37 -11.1 °C -11.9 °C 34296.8 hPa Calm     91 % 0 mm
04:43 -11.7 °C -12.4 °C 34296.8 hPa Calm     92 % 0 mm
04:47 -11.7 °C -12.3 °C 34296.8 hPa Calm     93 % 0 mm
04:52 -11.7 °C -12.3 °C 34296.8 hPa Calm     93 % 0 mm
04:57 -11.7 °C -12.3 °C 34296.8 hPa Calm     93 % 0 mm
05:02 -11.7 °C -12.4 °C 34296.8 hPa Calm     92 % 0 mm
05:07 -11.7 °C -12.3 °C 34296.8 hPa Calm     93 % 0 mm
05:13 -11.7 °C -12.2 °C 34296.8 hPa Calm     94 % 0 mm
05:17 -11.7 °C -12.2 °C 34296.8 hPa Calm     94 % 0 mm
05:23 -11.7 °C -12.2 °C 34296.8 hPa Calm     94 % 0 mm
05:27 -11.7 °C -12.2 °C 34296.8 hPa Calm     94 % 0 mm
05:32 -11.7 °C -12.2 °C 34296.8 hPa Calm     94 % 0 mm
05:38 -11.7 °C -12.1 °C 34296.8 hPa Calm     95 % 0 mm
05:42 -11.7 °C -12.1 °C 34296.8 hPa Calm     95 % 0 mm
05:47 -11.7 °C -12.1 °C 34296.8 hPa Calm     95 % 0 mm
05:52 -11.7 °C -12.1 °C 34296.8 hPa NNW 3.1 km/h   95 % 0 mm
05:58 -11.7 °C -12.1 °C 34296.8 hPa Calm     95 % 0 mm
06:02 -11.7 °C -12.1 °C 34296.8 hPa Calm     95 % 0 mm
06:08 -11.7 °C -12.2 °C 34296.8 hPa Calm     94 % 0 mm
06:13 -11.7 °C -12.2 °C 34296.8 hPa North 3.1 km/h   94 % 0 mm
06:17 -11.7 °C -12.3 °C 34296.8 hPa Calm     93 % 0 mm
06:23 -11.7 °C -12.3 °C 34296.8 hPa ENE 6 km/h 2.6 km/h 93 % 0 mm
06:27 -11.7 °C -12.2 °C 34296.8 hPa SE 3.1 km/h   94 % 0 mm
06:32 -11.7 °C -12.2 °C 34296.8 hPa Calm     94 % 0 mm
06:38 -11.7 °C -12.2 °C 34296.8 hPa Calm     94 % 0 mm
06:42 -11.7 °C -12.3 °C 34296.8 hPa NE 3.1 km/h   93 % 0 mm
06:47 -12.2 °C -12.8 °C 34296.8 hPa NE 3.1 km/h 2.6 km/h 93 % 0 mm
06:52 -12.2 °C -13 °C 34296.8 hPa North 3.1 km/h 0.8 km/h 91 % 0 mm
06:58 -12.2 °C -12.9 °C 34296.8 hPa SE 3.1 km/h   92 % 0 mm
07:02 -12.2 °C -12.9 °C 34296.8 hPa Calm     92 % 0 mm
07:08 -11.7 °C -12.3 °C 34296.8 hPa Calm     93 % 0 mm
07:13 -11.7 °C -12.3 °C 34330.7 hPa Calm     93 % 0 mm
07:17 -11.7 °C -12.3 °C 34296.8 hPa Calm     93 % 0 mm
07:22 -11.7 °C -12.4 °C 34296.8 hPa Calm     92 % 0 mm
07:27 -11.7 °C -12.4 °C 34330.7 hPa Calm     91 % 0 mm
07:32 -11.7 °C -12.6 °C 34330.7 hPa Calm     90 % 0 mm
07:38 -11.7 °C -12.6 °C 34330.7 hPa Calm     90 % 0 mm
07:43 -11.7 °C -12.6 °C 34330.7 hPa SE 3.1 km/h 0.3 km/h 90 % 0 mm
07:48 -11.7 °C -12.6 °C 34330.7 hPa Calm     90 % 0 mm
07:52 -11.7 °C -12.4 °C 34330.7 hPa Calm     91 % 0 mm
07:58 -11.7 °C -12.4 °C 34330.7 hPa Calm     91 % 0 mm
08:03 -11.7 °C -12.4 °C 34330.7 hPa Calm     91 % 0 mm
08:07 -11.7 °C -12.4 °C 34330.7 hPa WSW 3.1 km/h   91 % 0 mm
08:12 -11.7 °C -12.4 °C 34330.7 hPa Calm     91 % 0 mm
08:18 -11.7 °C -12.6 °C 34330.7 hPa SW 3.1 km/h   90 % 0 mm
08:22 -11.7 °C -12.4 °C 34330.7 hPa WSW 5 km/h 2.3 km/h 91 % 0 mm
08:27 -11.7 °C -12.4 °C 34330.7 hPa NW 6 km/h 3.4 km/h 91 % 0 mm
08:32 -11.7 °C -12.4 °C 34330.7 hPa Calm     91 % 0 mm
08:37 -11.7 °C -12.4 °C 34330.7 hPa Calm     91 % 0 mm
08:43 -11.7 °C -12.4 °C 34330.7 hPa WSW 3.1 km/h   91 % 0 mm
08:47 -11.7 °C -12.4 °C 34330.7 hPa WSW 3.1 km/h 0.5 km/h 91 % 0 mm
08:53 -11.7 °C -12.4 °C 34364.5 hPa WSW 3.1 km/h 0.3 km/h 91 % 0 mm
08:57 -11.7 °C -12.4 °C 34364.5 hPa SW 6 km/h 1.8 km/h 92 % 0 mm
09:02 -11.7 °C -12.4 °C 34364.5 hPa WSW 3.1 km/h 2.3 km/h 92 % 0 mm
09:07 -11.1 °C -11.9 °C 34364.5 hPa WSW 6 km/h 2.9 km/h 91 % 0 mm
09:13 -11.1 °C -11.8 °C 34364.5 hPa WSW 6 km/h 3.7 km/h 92 % 0 mm
09:18 -11.1 °C -11.8 °C 34364.5 hPa WNW 3.1 km/h 0.8 km/h 92 % 0 mm
09:23 -11.1 °C -11.8 °C 34364.5 hPa SSE 3.1 km/h 0.3 km/h 92 % 0 mm
09:27 -11.1 °C -11.8 °C 34364.5 hPa NW 3.1 km/h 0.3 km/h 92 % 0 mm
09:33 -11.1 °C -11.8 °C 34364.5 hPa NW 3.1 km/h 1.3 km/h 92 % 0 mm
09:38 -11.1 °C -11.8 °C 34398.4 hPa NNW 3.1 km/h 0.3 km/h 92 % 0 mm
09:42 -11.1 °C -11.8 °C 34398.4 hPa WSW 3.1 km/h 2.1 km/h 92 % 0 mm
09:47 -11.1 °C -11.8 °C 34398.4 hPa WSW 9 km/h 5 km/h 92 % 0 mm
09:52 -11.1 °C -11.8 °C 34398.4 hPa WSW 6 km/h 6.3 km/h 92 % 0 mm
09:58 -11.1 °C -11.9 °C 34398.4 hPa SW 9 km/h 3.7 km/h 91 % 0 mm
10:02 -11.1 °C -11.9 °C 34398.4 hPa SW 9 km/h 5.5 km/h 91 % 0 mm
10:08 -11.1 °C -12 °C 34398.4 hPa SW 6 km/h 2.9 km/h 90 % 0 mm
10:13 -11.1 °C -12 °C 34398.4 hPa WSW 9 km/h 5.5 km/h 90 % 0 mm
10:18 -11.1 °C -12 °C 34398.4 hPa SW 6.4 km/h 3.9 km/h 90 % 0 mm
10:23 -10.6 °C -11.4 °C 34398.4 hPa WSW 9 km/h 6 km/h 90 % 0 mm
10:27 -10.6 °C -11.4 °C 34398.4 hPa WSW 11.9 km/h 6.3 km/h 90 % 0 mm
10:33 -10.6 °C -11.4 °C 34398.4 hPa SW 9 km/h 6 km/h 90 % 0 mm
10:37 -10.6 °C -11.4 °C 34398.4 hPa SW 15 km/h 8.5 km/h 90 % 0 mm
10:43 -10.6 °C -11.4 °C 34398.4 hPa SW 9 km/h 6.3 km/h 90 % 0 mm
10:47 -10 °C -11 °C 34398.4 hPa WSW 9 km/h 6 km/h 89 % 0 mm
10:53 -10 °C -11.2 °C 34398.4 hPa WSW 11.9 km/h 7.2 km/h 87 % 0 mm
10:57 -10 °C -11.2 °C 34398.4 hPa SW 9 km/h 5.6 km/h 87 % 0 mm
11:03 -10 °C -11.2 °C 34398.4 hPa SW 11.9 km/h 7.2 km/h 87 % 0 mm
11:07 -10 °C -11.2 °C 34398.4 hPa WSW 11.9 km/h 6.9 km/h 87 % 0 mm
11:12 -10 °C -11.3 °C 34398.4 hPa WSW 17.9 km/h 8 km/h 86 % 0 mm
11:18 -10 °C -11.5 °C 34398.4 hPa WSW 9 km/h 7.6 km/h 84 % 0 mm
11:22 -9.4 °C -11.1 °C 34398.4 hPa WSW 23.8 km/h 10.1 km/h 83 % 0 mm
11:27 -9.4 °C -11.2 °C 34398.4 hPa SW 17.9 km/h 11.9 km/h 82 % 0 mm
11:33 -9.4 °C -11.2 °C 34398.4 hPa WSW 11.9 km/h 7.2 km/h 82 % 0 mm
11:37 -9.4 °C -11.2 °C 34398.4 hPa SW 9 km/h 9.7 km/h 82 % 0 mm
11:42 -8.9 °C -10.7 °C 34432.2 hPa WSW 15 km/h 6.8 km/h 81 % 0 mm
11:48 -8.9 °C -10.8 °C 34432.2 hPa SW 23.8 km/h 10.6 km/h 80 % 0 mm
11:53 -8.9 °C -11 °C 34432.2 hPa WSW 15 km/h 9.8 km/h 78 % 0 mm
11:57 -8.9 °C -11.2 °C 34398.4 hPa WSW 12.9 km/h 11.4 km/h 77 % 0 mm
12:03 -8.9 °C -11 °C 34398.4 hPa WSW 11.9 km/h 8.5 km/h 78 % 0 mm
12:07 -8.3 °C -10.8 °C 34398.4 hPa SW 11.9 km/h 8 km/h 75 % 0 mm
12:13 -8.3 °C -11.2 °C 34432.2 hPa WSW 16.1 km/h 9.3 km/h 72 % 0 mm
12:17 -8.3 °C -11.5 °C 34432.2 hPa WSW 20.9 km/h 11.6 km/h 69 % 0 mm
12:23 -8.3 °C -12 °C 34432.2 hPa NW 17.9 km/h 10.6 km/h 65 % 0 mm
12:27 -8.3 °C -12.2 °C 34398.4 hPa West 17.9 km/h 9 km/h 64 % 0 mm
12:32 -7.8 °C -11.9 °C 34432.2 hPa NW 11.9 km/h 10.1 km/h 62 % 0 mm
12:38 -7.8 °C -11.9 °C 34432.2 hPa WSW 17.9 km/h 11.1 km/h 62 % 0 mm
12:42 -7.8 °C -11.9 °C 34432.2 hPa NW 9.7 km/h 7.2 km/h 62 % 0 mm
12:47 -7.8 °C -12.2 °C 34432.2 hPa SW 11.9 km/h 5.5 km/h 60 % 0 mm
12:53 -7.2 °C -11.5 °C 34432.2 hPa NW 20.9 km/h 12.9 km/h 61 % 0 mm
12:58 -7.2 °C -11.8 °C 34432.2 hPa SW 15 km/h 8.9 km/h 59 % 0 mm
13:02 -7.2 °C -11.9 °C 34398.4 hPa WSW 15 km/h 5.5 km/h 58 % 0 mm
13:08 -7.2 °C -12.3 °C 34432.2 hPa NNW 11.9 km/h 7.2 km/h 55 % 0 mm
13:13 -7.2 °C -12.5 °C 34432.2 hPa NE 15 km/h 9.3 km/h 54 % 0 mm
13:17 -6.7 °C -12 °C 34398.4 hPa NW 9 km/h 6 km/h 54 % 0 mm
13:23 -6.7 °C -11.8 °C 34398.4 hPa NW 17.5 km/h 10.6 km/h 55 % 0 mm
13:27 -6.1 °C -11.2 °C 34398.4 hPa WNW 15 km/h 8.5 km/h 56 % 0 mm
13:32 -6.1 °C -11 °C 34398.4 hPa NW 12.9 km/h 10.9 km/h 57 % 0 mm
13:38 -6.1 °C -10.9 °C 34398.4 hPa NNW 11.4 km/h 6.8 km/h 58 % 0 mm
13:43 -6.7 °C -11.1 °C 34398.4 hPa WNW 17.9 km/h 11.9 km/h 60 % 0 mm
13:47 -6.7 °C -11.1 °C 34398.4 hPa SW 15 km/h 8.9 km/h 60 % 0 mm
13:52 -6.1 °C -10.6 °C 34398.4 hPa NW 11.9 km/h 9.3 km/h 60 % 0 mm
13:58 -6.7 °C -11.1 °C 34398.4 hPa WSW 29.8 km/h 17.9 km/h 60 % 0 mm
14:03 -7.2 °C -11.6 °C 34398.4 hPa West 20.9 km/h 11.1 km/h 60 % 0 mm
14:08 -6.7 °C -11.1 °C 34398.4 hPa WSW 17.9 km/h 10.1 km/h 60 % 0 mm
14:12 -6.1 °C -10.9 °C 34398.4 hPa North 11.9 km/h 11.9 km/h 58 % 0 mm
14:17 -6.1 °C -10.9 °C 34398.4 hPa NNW 11.9 km/h 6.3 km/h 58 % 0 mm
14:22 -6.1 °C -11 °C 34398.4 hPa SSE 17.9 km/h 6.4 km/h 57 % 0 mm
14:28 -6.1 °C -10.9 °C 34398.4 hPa SW 23.8 km/h 9.3 km/h 58 % 0 mm
14:33 -6.1 °C -10.9 °C 34398.4 hPa SW 15 km/h 10.1 km/h 58 % 0 mm
14:37 -6.1 °C -11 °C 34398.4 hPa WSW 15 km/h 6.9 km/h 57 % 0 mm
14:42 -6.1 °C -11 °C 34398.4 hPa SW 15 km/h 11.6 km/h 57 % 0 mm
14:48 -6.1 °C -11 °C 34398.4 hPa SW 20.9 km/h 12.4 km/h 57 % 0 mm
14:53 -6.1 °C -11 °C 34398.4 hPa NW 9 km/h 6.4 km/h 57 % 0 mm
14:58 -6.1 °C -11 °C 34398.4 hPa WSW 15 km/h 10.3 km/h 57 % 0 mm
15:02 -6.1 °C -11 °C 34398.4 hPa SW 9 km/h 7.7 km/h 57 % 0 mm
15:07 -6.1 °C -11 °C 34398.4 hPa WSW 26.9 km/h 10.6 km/h 57 % 0 mm
15:13 -6.1 °C -11.2 °C 34398.4 hPa WSW 17.9 km/h 9 km/h 56 % 0 mm
15:18 -6.1 °C -10.9 °C 34364.5 hPa WSW 26.9 km/h 13.5 km/h 58 % 0 mm
15:22 -6.1 °C -10.9 °C 34364.5 hPa SW 22.5 km/h 17.1 km/h 58 % 0 mm
15:27 -6.1 °C -10.9 °C 34364.5 hPa WSW 15 km/h 12.4 km/h 58 % 0 mm
15:32 -6.1 °C -11 °C 34364.5 hPa NW 15 km/h 7.2 km/h 57 % 0 mm
15:38 -6.1 °C -11 °C 34364.5 hPa East 11.9 km/h 6.4 km/h 57 % 0 mm
15:42 -5.6 °C -10.5 °C 34364.5 hPa NW 15 km/h 7.2 km/h 57 % 0 mm
Alcoletge
Elogios de Weather Underground - 1.5 mb

Guión original por  Jim McMurry - jmcmurry@mwt.net Adaptado para la plantilla por  Wim van der Kuil - Leuven-Template.eu

Usted encontrará nuestra información del tiempo también en:

Weather Underground

Iberian Peninsula Weather Network